Time;durP1;ratioP1;P1;durP2;ratioP2;P2;SDS_P1;SDS_P2;PMS_P1;PMS_P2;Temp;Humidity;BMP_temperature;BMP_pressure;BME280_temperature;BME280_humidity;BME280_pressure;Samples;Min_cycle;Max_cycle;Signal;HPM_P1;HPM_P2
2023/09/30 04:01:33;;;;;;;;;;;12.40;99.90;;;;;;5473711;23;19925;-76
2023/09/30 04:03:58;;;;;;;;;;;12.40;99.90;;;;;;4977332;28;20009;-77
2023/09/30 04:06:24;;;;;;;;;;;12.30;99.90;;;;;;4977420;28;19980;-77
2023/09/30 04:08:50;;;;;;;;;;;12.40;99.90;;;;;;4977365;28;19928;-75
2023/09/30 04:11:18;;;;;;;;;;;12.30;99.90;;;;;;4977215;28;19933;-75
2023/09/30 04:13:44;;;;;;;;;;;12.30;99.90;;;;;;4977538;28;20329;-76
2023/09/30 04:16:10;;;;;;;;;;;12.40;99.90;;;;;;4977268;28;19977;-76
2023/09/30 04:18:35;;;;;;;;;;;12.30;99.90;;;;;;4977554;28;19922;-76
2023/09/30 04:21:01;;;;;;;;;;;12.30;99.90;;;;;;4977440;28;20004;-75
2023/09/30 04:23:27;;;;;;;;;;;12.30;99.90;;;;;;4977444;28;20014;-76
2023/09/30 04:25:53;;;;;;;;;;;12.30;99.90;;;;;;4994550;28;20001;-77
2023/09/30 04:28:21;;;;;;;;;;;12.30;99.90;;;;;;4977170;28;19984;-76
2023/09/30 04:30:50;;;;;;;;;;;12.30;99.90;;;;;;4993553;28;19926;-76
2023/09/30 04:33:17;;;;;;;;;;;12.30;99.90;;;;;;4976999;28;19926;-75
2023/09/30 04:35:43;;;;;;;;;;;12.30;99.90;;;;;;4977022;28;19926;-76
2023/09/30 04:38:09;;;;;;;;;;;12.30;99.90;;;;;;4994327;28;19937;-76
2023/09/30 04:40:34;;;;;;;;;;;12.30;99.90;;;;;;4976924;28;19922;-76
2023/09/30 04:43:00;;;;;;;;;;;12.30;99.90;;;;;;4976911;28;19921;-76
2023/09/30 04:45:26;;;;;;;;;;;12.20;99.90;;;;;;4994378;28;19921;-76
2023/09/30 04:47:52;;;;;;;;;;;12.30;99.90;;;;;;4994644;28;19921;-76
2023/09/30 04:50:17;;;;;;;;;;;12.30;99.90;;;;;;4976793;28;20008;-76
2023/09/30 04:52:45;;;;;;;;;;;12.20;99.90;;;;;;4994749;28;19972;-76
2023/09/30 04:55:12;;;;;;;;;;;12.20;99.90;;;;;;4977069;28;20424;-77
2023/09/30 04:57:38;;;;;;;;;;;12.20;99.90;;;;;;4977540;28;19948;-76
2023/09/30 05:00:10;;;;;;;;;;;12.20;99.90;;;;;;4976670;28;19921;-76
2023/09/30 05:02:36;;;;;;;;;;;12.20;99.90;;;;;;4976984;28;20285;-78
2023/09/30 05:05:04;;;;;;;;;;;12.20;99.90;;;;;;4976989;28;19922;-77
2023/09/30 05:07:29;;;;;;;;;;;12.20;99.90;;;;;;4994434;28;19922;-77
2023/09/30 05:09:55;;;;;;;;;;;12.20;99.90;;;;;;4994367;28;20384;-77
2023/09/30 05:12:20;;;;;;;;;;;12.20;99.90;;;;;;4976905;28;19922;-77
2023/09/30 05:14:46;;;;;;;;;;;12.20;99.90;;;;;;4960865;28;19922;-77
2023/09/30 05:17:12;;;;;;;;;;;12.20;99.90;;;;;;4994269;28;19977;-76
2023/09/30 05:19:38;;;;;;;;;;;12.20;99.90;;;;;;4976919;28;19922;-77
2023/09/30 05:22:03;;;;;;;;;;;12.10;99.90;;;;;;4976473;28;20400;-75
2023/09/30 05:24:29;;;;;;;;;;;12.10;99.90;;;;;;4994052;28;19922;-76
2023/09/30 05:26:54;;;;;;;;;;;12.10;99.90;;;;;;4976475;28;19926;-76
2023/09/30 05:29:20;;;;;;;;;;;12.10;99.90;;;;;;4976780;28;19929;-77
2023/09/30 05:31:46;;;;;;;;;;;12.10;99.90;;;;;;4976391;28;20396;-77
2023/09/30 05:34:11;;;;;;;;;;;12.10;99.90;;;;;;4976436;28;19922;-76
2023/09/30 05:36:37;;;;;;;;;;;12.00;99.90;;;;;;4976377;28;19976;-76
2023/09/30 05:39:03;;;;;;;;;;;12.10;99.90;;;;;;4960331;28;19922;-76
2023/09/30 05:41:29;;;;;;;;;;;12.10;99.90;;;;;;4976089;28;20040;-76
2023/09/30 05:43:55;;;;;;;;;;;12.00;99.90;;;;;;4979885;28;19926;-77
2023/09/30 05:46:21;;;;;;;;;;;12.00;99.90;;;;;;4979684;28;19929;-77
2023/09/30 05:48:47;;;;;;;;;;;12.00;99.90;;;;;;4997488;28;19953;-77
2023/09/30 05:51:15;;;;;;;;;;;11.90;99.90;;;;;;4979737;28;19926;-77
2023/09/30 05:53:41;;;;;;;;;;;11.90;99.90;;;;;;4979766;28;20030;-77
2023/09/30 05:56:07;;;;;;;;;;;11.90;99.90;;;;;;4979809;28;19971;-76
2023/09/30 05:58:33;;;;;;;;;;;11.90;99.90;;;;;;4979623;28;19922;-77
2023/09/30 06:01:00;;;;;;;;;;;11.90;99.90;;;;;;4979407;28;19922;-77
2023/09/30 06:03:29;;;;;;;;;;;11.90;99.90;;;;;;4979544;28;19972;-77
2023/09/30 06:05:55;;;;;;;;;;;11.90;99.90;;;;;;4997041;28;20023;-76
2023/09/30 06:08:21;;;;;;;;;;;11.90;99.90;;;;;;4963340;28;19922;-76
2023/09/30 06:10:46;;;;;;;;;;;11.90;99.90;;;;;;4979257;28;19933;-76
2023/09/30 06:13:13;;;;;;;;;;;11.90;99.90;;;;;;4979378;28;19922;-77
2023/09/30 06:15:40;;;;;;;;;;;11.90;99.90;;;;;;4996749;28;20420;-77
2023/09/30 06:18:06;;;;;;;;;;;11.90;99.90;;;;;;4979274;28;20008;-76
2023/09/30 06:20:31;;;;;;;;;;;11.90;99.90;;;;;;4979242;28;19969;-76
2023/09/30 06:22:57;;;;;;;;;;;11.90;99.90;;;;;;4963003;28;20008;-76
2023/09/30 06:25:24;;;;;;;;;;;11.90;99.90;;;;;;4979128;28;19929;-77
2023/09/30 06:27:50;;;;;;;;;;;11.90;99.90;;;;;;4996470;28;19928;-77
2023/09/30 06:30:16;;;;;;;;;;;11.90;99.90;;;;;;4978955;28;20332;-77
2023/09/30 06:32:41;;;;;;;;;;;12.00;99.90;;;;;;4979011;28;20046;-76
2023/09/30 06:35:10;;;;;;;;;;;12.00;99.90;;;;;;4979023;28;19965;-77
2023/09/30 06:37:39;;;;;;;;;;;12.00;99.90;;;;;;4979203;28;19929;-77
2023/09/30 06:40:08;;;;;;;;;;;12.10;99.90;;;;;;4996379;28;19929;-77
2023/09/30 06:42:35;;;;;;;;;;;12.10;99.90;;;;;;4978810;28;19961;-77
2023/09/30 06:45:05;;;;;;;;;;;12.20;99.90;;;;;;4978894;28;19967;-77
2023/09/30 06:47:34;;;;;;;;;;;12.20;99.90;;;;;;4963795;28;20372;-77
2023/09/30 06:50:07;;;;;;;;;;;12.20;99.90;;;;;;4996232;28;19926;-77
2023/09/30 06:52:37;;;;;;;;;;;12.20;99.90;;;;;;4979016;28;19922;-77
2023/09/30 06:55:06;;;;;;;;;;;12.30;99.90;;;;;;4977923;28;19921;-77
2023/09/30 06:57:35;;;;;;;;;;;12.30;99.90;;;;;;4978537;28;19922;-78
2023/09/30 07:00:01;;;;;;;;;;;12.30;99.90;;;;;;4979317;28;19922;-78
2023/09/30 07:02:27;;;;;;;;;;;12.40;99.90;;;;;;4978659;28;19996;-77
2023/09/30 07:04:53;;;;;;;;;;;12.40;99.90;;;;;;4978443;28;19971;-76
2023/09/30 07:07:19;;;;;;;;;;;12.50;99.90;;;;;;4977725;28;19926;-77
2023/09/30 07:09:44;;;;;;;;;;;12.50;99.90;;;;;;4978588;28;19941;-77
2023/09/30 07:12:10;;;;;;;;;;;12.60;99.90;;;;;;4978264;28;19976;-78
2023/09/30 07:14:35;;;;;;;;;;;12.60;99.90;;;;;;4978690;28;19975;-78
2023/09/30 07:17:01;;;;;;;;;;;12.70;99.90;;;;;;4978232;28;20031;-77
2023/09/30 07:19:26;;;;;;;;;;;12.70;99.90;;;;;;4978444;28;19921;-77
2023/09/30 07:21:52;;;;;;;;;;;12.80;99.90;;;;;;4960994;28;19937;-77
2023/09/30 07:24:17;;;;;;;;;;;12.90;99.90;;;;;;4975689;28;19926;-76
2023/09/30 07:26:43;;;;;;;;;;;12.90;99.90;;;;;;4974503;28;19922;-78
2023/09/30 07:29:09;;;;;;;;;;;13.00;99.90;;;;;;4977959;28;20064;-76
2023/09/30 07:31:37;;;;;;;;;;;13.00;99.90;;;;;;4977860;28;20400;-77
2023/09/30 07:34:03;;;;;;;;;;;13.10;99.90;;;;;;4994909;28;19929;-77
2023/09/30 07:36:28;;;;;;;;;;;13.20;99.90;;;;;;4977850;28;19921;-78
2023/09/30 07:38:54;;;;;;;;;;;13.20;99.90;;;;;;4972542;28;19933;-77
2023/09/30 07:41:20;;;;;;;;;;;13.30;99.90;;;;;;4968836;28;19922;-76
2023/09/30 07:43:45;;;;;;;;;;;13.30;99.90;;;;;;4967517;28;20009;-77
2023/09/30 07:46:11;;;;;;;;;;;13.40;99.90;;;;;;4971218;28;20019;-77
2023/09/30 07:48:36;;;;;;;;;;;13.50;99.90;;;;;;4966452;28;19930;-77
2023/09/30 07:51:02;;;;;;;;;;;13.50;99.90;;;;;;4968282;28;19929;-78
2023/09/30 07:53:28;;;;;;;;;;;13.60;99.90;;;;;;4967248;28;19922;-76
2023/09/30 07:55:54;;;;;;;;;;;13.70;99.90;;;;;;4984307;28;19922;-76
2023/09/30 07:58:20;;;;;;;;;;;13.70;99.90;;;;;;4969402;28;19928;-76
2023/09/30 08:00:45;;;;;;;;;;;13.80;99.90;;;;;;4983987;28;19926;-76
2023/09/30 08:03:11;;;;;;;;;;;13.90;99.90;;;;;;4968604;28;19922;-76
2023/09/30 08:05:37;;;;;;;;;;;13.90;99.90;;;;;;4966131;28;19974;-77
2023/09/30 08:08:03;;;;;;;;;;;14.00;99.90;;;;;;4985703;28;19972;-76
2023/09/30 08:10:31;;;;;;;;;;;14.00;99.90;;;;;;4967188;28;19926;-76
2023/09/30 08:12:58;;;;;;;;;;;14.10;99.90;;;;;;4966456;28;19976;-76
2023/09/30 08:15:24;;;;;;;;;;;14.10;99.90;;;;;;4951785;28;19922;-77
2023/09/30 08:17:50;;;;;;;;;;;14.20;99.90;;;;;;4951267;28;19922;-76
2023/09/30 08:20:15;;;;;;;;;;;14.30;99.90;;;;;;4986354;28;19929;-76
2023/09/30 08:22:41;;;;;;;;;;;14.40;99.90;;;;;;4995055;28;20429;-75
2023/09/30 08:25:07;;;;;;;;;;;14.40;99.90;;;;;;4977950;28;19952;-76
2023/09/30 08:27:32;;;;;;;;;;;14.50;99.90;;;;;;4976997;28;19921;-76
2023/09/30 08:29:58;;;;;;;;;;;14.50;99.90;;;;;;4976888;28;19933;-77
2023/09/30 08:32:23;;;;;;;;;;;14.60;99.90;;;;;;4976938;28;20403;-77
2023/09/30 08:34:49;;;;;;;;;;;14.70;99.90;;;;;;4977829;28;20333;-75
2023/09/30 08:37:14;;;;;;;;;;;14.70;99.90;;;;;;4977137;28;20305;-76
2023/09/30 08:39:40;;;;;;;;;;;14.90;99.90;;;;;;4977164;28;20016;-77
2023/09/30 08:42:13;;;;;;;;;;;14.90;99.90;;;;;;4977184;28;19944;-80
2023/09/30 08:44:39;;;;;;;;;;;15.00;99.90;;;;;;4961066;28;20005;-75
2023/09/30 08:47:09;;;;;;;;;;;15.10;99.90;;;;;;4975033;28;19988;-74
2023/09/30 08:49:39;;;;;;;;;;;15.20;99.90;;;;;;4974613;28;19926;-76
2023/09/30 08:52:05;;;;;;;;;;;15.30;99.90;;;;;;4941734;28;20353;-76
2023/09/30 08:54:31;;;;;;;;;;;15.50;99.90;;;;;;4975005;28;19926;-77
2023/09/30 08:56:57;;;;;;;;;;;15.80;99.90;;;;;;4974714;28;19928;-77
2023/09/30 08:59:24;;;;;;;;;;;16.00;99.90;;;;;;4957425;28;19922;-77
2023/09/30 09:01:49;;;;;;;;;;;16.10;99.90;;;;;;4957655;28;19926;-77
2023/09/30 09:04:15;;;;;;;;;;;16.10;99.90;;;;;;4957639;28;20262;-76
2023/09/30 09:06:41;;;;;;;;;;;16.10;99.90;;;;;;4957254;28;19926;-76
2023/09/30 09:09:22;;;;;;;;;;;16.20;99.90;;;;;;4957213;28;19922;-76
2023/09/30 09:14:46;;;;;;;17.83;8.25;;;16.40;99.90;;;;;;5087383;27;20334;-77
2023/09/30 09:17:11;;;;;;;18.47;8.50;;;16.50;99.90;;;;;;5102860;28;20040;-75
2023/09/30 09:19:37;;;;;;;17.50;8.18;;;16.60;99.90;;;;;;5069594;28;20602;-75
2023/09/30 09:22:06;;;;;;;15.30;8.18;;;16.70;99.90;;;;;;5081777;28;20452;-76
2023/09/30 09:24:42;;;;;;;21.67;7.65;;;16.80;99.90;;;;;;5086703;28;20079;-77
2023/09/30 09:27:11;;;;;;;17.42;7.80;;;16.90;99.90;;;;;;5087083;28;20047;-86
2023/09/30 09:29:42;;;;;;;21.27;8.88;;;16.90;99.90;;;;;;5069599;28;20044;-78
2023/09/30 09:32:16;;;;;;;17.08;8.00;;;17.00;99.90;;;;;;5085816;28;20048;-77
2023/09/30 09:34:43;;;;;;;14.90;7.20;;;17.10;99.90;;;;;;5085653;28;20036;-77
2023/09/30 09:37:16;;;;;;;18.02;8.27;;;17.20;99.90;;;;;;5087186;28;20052;-75
2023/09/30 09:39:56;;;;;;;17.88;7.97;;;17.20;99.90;;;;;;5085626;28;20506;-77
2023/09/30 09:42:32;;;;;;;15.75;7.47;;;17.40;99.90;;;;;;5085645;28;20076;-75
2023/09/30 09:45:00;;;;;;;17.27;7.63;;;17.50;99.90;;;;;;5086877;28;20044;-77
2023/09/30 09:47:26;;;;;;;15.60;7.40;;;17.50;99.90;;;;;;5085692;28;20040;-75
2023/09/30 09:49:53;;;;;;;17.95;7.72;;;17.60;99.90;;;;;;5085944;28;20048;-79
2023/09/30 09:52:19;;;;;;;16.85;7.50;;;17.60;99.90;;;;;;5086574;28;20040;-76
2023/09/30 09:54:46;;;;;;;18.05;8.20;;;17.70;99.90;;;;;;5085889;28;20120;-81
2023/09/30 09:57:12;;;;;;;17.60;7.05;;;17.70;99.90;;;;;;5068908;28;20055;-78
2023/09/30 09:59:43;;;;;;;14.52;6.95;;;17.70;99.90;;;;;;5085859;28;20443;-82
2023/09/30 10:02:14;;;;;;;13.40;6.25;;;17.70;99.90;;;;;;5085801;28;20387;-76
2023/09/30 10:04:44;;;;;;;13.48;6.22;;;17.70;99.90;;;;;;5085529;28;20333;-77
2023/09/30 10:07:25;;;;;;;20.52;6.18;;;17.70;99.90;;;;;;5086428;28;20503;-77
2023/09/30 10:09:52;;;;;;;13.43;6.00;;;17.70;99.90;;;;;;5085625;28;20352;-77
2023/09/30 10:12:19;;;;;;;14.13;6.38;;;17.60;99.90;;;;;;5085053;28;20108;-77
2023/09/30 10:14:45;;;;;;;13.75;5.18;;;17.60;99.90;;;;;;5085572;28;20406;-78
2023/09/30 10:17:11;;;;;;;13.65;5.78;;;17.60;99.90;;;;;;5085701;28;20044;-77
2023/09/30 10:20:04;;;;;;;19.15;8.23;;;17.70;99.90;;;;;;5086042;28;20040;-77
2023/09/30 10:22:30;;;;;;;18.02;5.85;;;17.90;99.90;;;;;;5085378;28;20044;-76
2023/09/30 10:24:59;;;;;;;14.38;5.05;;;18.00;99.90;;;;;;5076527;28;20045;-76
2023/09/30 10:27:24;;;;;;;13.98;5.30;;;18.20;99.90;;;;;;5071504;28;20052;-76
2023/09/30 10:30:10;;;;;;;13.63;4.68;;;18.30;99.90;;;;;;5071464;28;20036;-77
2023/09/30 10:32:53;;;;;;;10.57;3.00;;;18.50;99.90;;;;;;5071286;28;20491;-76
2023/09/30 10:35:31;;;;;;;8.60;2.63;;;18.60;99.90;;;;;;5054861;28;20383;-77
2023/09/30 10:38:21;;;;;;;12.27;3.30;;;18.70;99.90;;;;;;5072615;28;20036;-77
2023/09/30 10:40:47;;;;;;;11.15;3.20;;;18.90;99.90;;;;;;5071436;28;20487;-75
2023/09/30 10:43:38;;;;;;;9.65;2.47;;;19.00;99.90;;;;;;5072682;28;20041;-77
2023/09/30 10:46:23;;;;;;;7.93;2.63;;;18.90;99.90;;;;;;5055294;28;20452;-75
2023/09/30 10:48:49;;;;;;;8.30;2.72;;;18.70;99.90;;;;;;5071194;28;20510;-77
2023/09/30 10:51:21;;;;;;;9.52;2.05;;;18.50;99.90;;;;;;5071181;28;20171;-77
2023/09/30 10:53:51;;;;;;;9.00;2.00;;;18.50;99.90;;;;;;5070878;28;20119;-77
2023/09/30 10:56:18;;;;;;;8.93;2.10;;;18.70;99.90;;;;;;5070909;28;20048;-76
2023/09/30 10:58:50;;;;;;;8.63;2.08;;;18.80;99.90;;;;;;5072673;28;20038;-78
2023/09/30 11:01:21;;;;;;;5.60;1.70;;;19.00;99.90;;;;;;5070792;28;20079;-77
2023/09/30 11:03:50;;;;;;;6.97;1.98;;;19.10;99.90;;;;;;5071126;28;20056;-76
2023/09/30 11:06:20;;;;;;;10.10;2.10;;;19.20;99.90;;;;;;5070904;28;20041;-75
2023/09/30 11:09:05;;;;;;;6.18;1.83;;;19.30;99.90;;;;;;5071822;28;20531;-77
2023/09/30 11:11:39;;;;;;;8.27;2.03;;;19.40;99.90;;;;;;5070541;28;20056;-76
2023/09/30 11:14:28;;;;;;;10.38;2.40;;;19.40;99.90;;;;;;5070582;28;20515;-78
2023/09/30 11:16:56;;;;;;;6.65;1.67;;;19.50;99.90;;;;;;5070568;28;20128;-76
2023/09/30 11:19:22;;;;;;;7.65;2.03;;;19.50;99.90;;;;;;5072035;28;20054;-77
2023/09/30 11:21:58;;;;;;;6.57;1.63;;;19.40;99.90;;;;;;5070724;28;20491;-77
2023/09/30 11:24:25;;;;;;;5.53;1.60;;;19.40;99.90;;;;;;5072253;28;20049;-77
2023/09/30 11:26:55;;;;;;;5.40;1.70;;;19.40;99.90;;;;;;5070396;28;20080;-78
2023/09/30 11:29:21;;;;;;;7.18;1.60;;;19.30;99.90;;;;;;5070296;28;20037;-78
2023/09/30 11:31:48;;;;;;;9.50;1.77;;;19.20;99.90;;;;;;5070414;28;20435;-77
2023/09/30 11:34:16;;;;;;;8.48;1.88;;;19.20;99.90;;;;;;5053583;28;20056;-78
2023/09/30 11:36:49;;;;;;;7.82;1.65;;;19.40;99.90;;;;;;5069080;28;20037;-75
2023/09/30 11:39:26;;;;;;;9.05;2.15;;;19.50;99.90;;;;;;5070311;28;20048;-76
2023/09/30 11:41:52;;;;;;;7.40;1.33;;;19.60;99.90;;;;;;5071529;28;20043;-77
2023/09/30 11:44:18;;;;;;;10.15;2.22;;;19.80;99.90;;;;;;5070091;28;20135;-76
2023/09/30 11:46:52;;;;;;;9.70;1.70;;;19.80;99.90;;;;;;5070683;28;20052;-78
2023/09/30 11:49:49;;;;;;;8.18;1.90;;;19.80;99.90;;;;;;5070202;28;20073;-78
2023/09/30 11:52:15;;;;;;;6.05;1.63;;;19.70;99.90;;;;;;5069225;28;20048;-78
2023/09/30 11:54:43;;;;;;;6.40;1.60;;;19.70;99.90;;;;;;5070062;28;20058;-78
2023/09/30 11:57:10;;;;;;;5.43;1.50;;;19.50;99.90;;;;;;5070343;28;20105;-76
2023/09/30 11:59:37;;;;;;;5.93;1.45;;;19.40;99.90;;;;;;5070287;28;20479;-78
2023/09/30 12:02:05;;;;;;;5.00;1.60;;;19.40;99.90;;;;;;5069900;28;20040;-78
2023/09/30 12:04:31;;;;;;;7.65;1.80;;;19.50;99.90;;;;;;5070160;28;20395;-76
2023/09/30 12:06:57;;;;;;;6.40;1.80;;;19.50;99.90;;;;;;5071339;28;20116;-79
2023/09/30 12:09:26;;;;;;;4.72;1.20;;;19.70;99.90;;;;;;5069807;28;20040;-77
2023/09/30 12:11:52;;;;;;;6.00;1.58;;;19.80;99.90;;;;;;5069957;28;20049;-77
2023/09/30 12:14:17;;;;;;;7.70;1.70;;;19.90;99.90;;;;;;5069556;28;20048;-77
2023/09/30 12:16:47;;;;;;;6.72;1.58;;;19.90;99.90;;;;;;5069545;28;20043;-77
2023/09/30 12:19:20;;;;;;;9.57;1.80;;;20.00;99.90;;;;;;5069613;28;20051;-76
2023/09/30 12:21:48;;;;;;;4.93;1.90;;;20.00;99.90;;;;;;5069473;28;20071;-75
2023/09/30 12:24:19;;;;;;;5.05;1.50;;;20.10;99.90;;;;;;5069533;28;20040;-76
2023/09/30 12:26:48;;;;;;;8.52;1.70;;;20.10;99.90;;;;;;5069471;28;20076;-77
2023/09/30 12:29:18;;;;;;;5.95;1.80;;;20.10;99.90;;;;;;5070656;28;20045;-76
2023/09/30 12:31:47;;;;;;;5.00;1.50;;;20.00;99.90;;;;;;5069445;28;20083;-75
2023/09/30 12:34:13;;;;;;;6.78;1.80;;;20.00;99.90;;;;;;5070622;28;20048;-77
2023/09/30 12:36:39;;;;;;;6.38;1.48;;;20.00;99.90;;;;;;5070838;28;20041;-75
2023/09/30 12:39:10;;;;;;;7.70;1.85;;;20.00;99.90;;;;;;5069041;28;20087;-75
2023/09/30 12:41:40;;;;;;;6.13;1.50;;;19.90;99.90;;;;;;5070809;28;20072;-78
2023/09/30 12:44:06;;;;;;;10.52;2.10;;;19.90;99.90;;;;;;5069303;28;20047;-75
2023/09/30 12:46:34;;;;;;;6.70;1.80;;;19.90;99.90;;;;;;5070378;28;20383;-79
2023/09/30 12:49:02;;;;;;;5.18;1.50;;;19.90;99.90;;;;;;5068935;28;20044;-75
2023/09/30 12:51:28;;;;;;;7.18;1.67;;;19.90;99.90;;;;;;5069065;28;20518;-76
2023/09/30 12:53:53;;;;;;;9.63;1.90;;;19.80;99.90;;;;;;5070307;28;20040;-77
2023/09/30 12:56:19;;;;;;;6.22;2.03;;;19.70;99.90;;;;;;5069090;28;20059;-74
2023/09/30 12:58:45;;;;;;;7.82;1.80;;;19.60;99.90;;;;;;5070307;28;20033;-75
2023/09/30 13:01:11;;;;;;;6.35;1.60;;;19.60;99.90;;;;;;5069168;28;20045;-76
2023/09/30 13:03:37;;;;;;;7.05;2.00;;;19.60;99.90;;;;;;5069658;28;20464;-77
2023/09/30 13:06:03;;;;;;;6.32;1.70;;;19.60;99.90;;;;;;5070755;28;20072;-78
2023/09/30 13:08:33;;;;;;;11.35;1.92;;;19.60;99.90;;;;;;5070436;28;20159;-75
2023/09/30 13:11:02;;;;;;;6.47;1.55;;;19.40;99.90;;;;;;5068774;28;20037;-76
2023/09/30 13:13:33;;;;;;;7.45;2.03;;;19.40;99.90;;;;;;5068792;28;20541;-76
2023/09/30 13:15:59;;;;;;;7.10;1.90;;;19.40;99.90;;;;;;5052271;28;20036;-77
2023/09/30 13:18:25;;;;;;;6.82;1.88;;;19.30;99.90;;;;;;5068994;28;20540;-77
2023/09/30 13:20:52;;;;;;;8.48;2.40;;;19.30;99.90;;;;;;5068702;28;20037;-76
2023/09/30 13:23:18;;;;;;;7.68;2.05;;;19.30;99.90;;;;;;5070094;28;20050;-76
2023/09/30 13:25:45;;;;;;;8.32;1.65;;;19.30;99.90;;;;;;5068701;28;20123;-77
2023/09/30 13:28:10;;;;;;;8.75;1.92;;;19.30;99.90;;;;;;5068734;28;20044;-81
2023/09/30 13:30:36;;;;;;;8.57;2.13;;;19.30;99.90;;;;;;5068747;28;20040;-79
2023/09/30 13:33:02;;;;;;;7.43;1.88;;;19.40;99.90;;;;;;5068539;28;20040;-82
2023/09/30 13:35:27;;;;;;;9.30;2.00;;;19.50;99.90;;;;;;5068641;28;20136;-79
2023/09/30 13:37:53;;;;;;;7.18;1.55;;;19.70;99.90;;;;;;5068941;28;20040;-77
2023/09/30 13:40:19;;;;;;;9.25;2.20;;;19.90;99.90;;;;;;5068487;28;20039;-74
2023/09/30 13:42:45;;;;;;;21.00;2.83;;;19.90;99.90;;;;;;5068497;28;20048;-78
2023/09/30 13:45:11;;;;;;;10.77;2.00;;;19.90;99.90;;;;;;5068645;28;20077;-79
2023/09/30 13:47:37;;;;;;;6.50;1.75;;;20.00;99.90;;;;;;5068420;28;20040;-78
2023/09/30 13:50:09;;;;;;;7.45;1.70;;;20.10;99.90;;;;;;5068340;28;20048;-80
2023/09/30 13:52:35;;;;;;;7.25;1.88;;;20.10;99.90;;;;;;5068471;28;20088;-77
2023/09/30 13:55:02;;;;;;;13.02;2.00;;;20.10;99.90;;;;;;5069396;28;20472;-80
2023/09/30 13:57:27;;;;;;;11.40;2.47;;;20.00;99.90;;;;;;5068684;28;20040;-78
2023/09/30 13:59:53;;;;;;;6.20;1.50;;;20.00;99.90;;;;;;5070036;28;20043;-78
2023/09/30 14:02:19;;;;;;;10.55;2.40;;;19.90;99.90;;;;;;5072081;28;20448;-77
2023/09/30 14:04:45;;;;;;;7.18;1.90;;;19.70;99.90;;;;;;5071821;28;20544;-80
2023/09/30 14:07:10;;;;;;;11.80;2.20;;;19.60;99.90;;;;;;5073352;28;20072;-77
2023/09/30 14:09:37;;;;;;;8.07;1.83;;;19.60;99.90;;;;;;5073831;28;20107;-78
2023/09/30 14:12:07;;;;;;;11.07;2.22;;;19.50;99.90;;;;;;5072613;28;20041;-78
2023/09/30 14:14:36;;;;;;;7.40;1.88;;;19.40;99.90;;;;;;5072130;28;20085;-78
2023/09/30 14:17:10;;;;;;;9.52;1.88;;;19.30;99.90;;;;;;5072876;28;20387;-78
2023/09/30 14:19:37;;;;;;;8.77;1.67;;;19.30;99.90;;;;;;5071820;28;20433;-76
2023/09/30 14:22:08;;;;;;;9.10;1.80;;;19.20;99.90;;;;;;5072788;28;20124;-79
2023/09/30 14:24:34;;;;;;;12.85;1.98;;;19.20;99.90;;;;;;5071507;28;20048;-81
2023/09/30 14:27:00;;;;;;;8.63;1.90;;;19.20;99.90;;;;;;5071532;28;20068;-76
2023/09/30 14:29:26;;;;;;;6.63;1.67;;;19.20;99.90;;;;;;5072711;28;20044;-78
2023/09/30 14:31:52;;;;;;;15.63;2.88;;;19.10;99.90;;;;;;5071287;28;20380;-74
2023/09/30 14:34:17;;;;;;;8.90;2.70;;;19.10;99.90;;;;;;5071226;28;20124;-76
2023/09/30 14:36:44;;;;;;;12.38;1.88;;;19.10;99.90;;;;;;5071595;28;20044;-75
2023/09/30 14:39:10;;;;;;;10.05;2.22;;;19.00;99.90;;;;;;5071492;28;20044;-80
2023/09/30 14:41:35;;;;;;;8.10;1.80;;;18.90;99.90;;;;;;5071189;28;20045;-77
2023/09/30 14:44:03;;;;;;;7.80;1.63;;;18.80;99.90;;;;;;5071219;28;20098;-77
2023/09/30 14:46:29;;;;;;;8.00;1.60;;;18.80;99.90;;;;;;5071648;28;20044;-79
2023/09/30 14:48:55;;;;;;;6.05;1.63;;;18.70;99.90;;;;;;5071135;28;20142;-78
2023/09/30 14:51:23;;;;;;;6.35;1.35;;;18.70;99.90;;;;;;5071048;28;20052;-78
2023/09/30 14:53:49;;;;;;;7.68;2.13;;;18.70;99.90;;;;;;5072493;28;20040;-77
2023/09/30 14:56:18;;;;;;;11.15;1.60;;;18.70;99.90;;;;;;5071277;28;20037;-78
2023/09/30 14:58:44;;;;;;;9.00;1.67;;;18.70;99.90;;;;;;5072132;28;20117;-77
2023/09/30 15:01:10;;;;;;;10.38;2.42;;;18.60;99.90;;;;;;5071139;28;20072;-78
2023/09/30 15:03:37;;;;;;;8.00;2.40;;;18.60;99.90;;;;;;5054166;28;20049;-79
2023/09/30 15:06:06;;;;;;;9.43;2.45;;;18.70;99.90;;;;;;5070972;28;20123;-78
2023/09/30 15:08:32;;;;;;;10.23;2.25;;;18.70;99.90;;;;;;5071462;28;20044;-74
2023/09/30 15:10:59;;;;;;;7.68;2.10;;;18.70;99.90;;;;;;5072814;28;20059;-79
2023/09/30 15:13:25;;;;;;;9.57;2.20;;;18.80;99.90;;;;;;5070725;28;20033;-77
2023/09/30 15:15:51;;;;;;;7.15;1.63;;;18.80;99.90;;;;;;5070648;28;20491;-78
2023/09/30 15:18:17;;;;;;;10.93;2.53;;;18.80;99.90;;;;;;5070643;28;20037;-74
2023/09/30 15:20:44;;;;;;;7.10;1.58;;;18.90;99.90;;;;;;5072222;28;20090;-77
2023/09/30 15:23:13;;;;;;;8.75;1.70;;;18.90;99.90;;;;;;5053985;28;20048;-77
2023/09/30 15:25:42;;;;;;;7.45;1.70;;;19.00;99.90;;;;;;5071764;28;20057;-81
2023/09/30 15:28:09;;;;;;;8.02;2.17;;;19.00;99.90;;;;;;5070794;28;20499;-78
2023/09/30 15:30:35;;;;;;;9.27;1.70;;;19.00;99.90;;;;;;5070689;28;20040;-78
2023/09/30 15:33:02;;;;;;;8.43;1.85;;;18.90;99.90;;;;;;5070576;28;20191;-79
2023/09/30 15:35:28;;;;;;;6.93;1.85;;;18.90;99.90;;;;;;5070434;28;20055;-78
2023/09/30 15:37:53;;;;;;;6.93;1.75;;;18.80;99.90;;;;;;5070902;28;20041;-80
2023/09/30 15:40:19;;;;;;;4.88;1.70;;;18.70;99.90;;;;;;5070509;28;20052;-78
2023/09/30 15:42:46;;;;;;;7.47;2.28;;;18.60;99.90;;;;;;5070291;28;20555;-75
2023/09/30 15:45:12;;;;;;;8.43;2.10;;;18.60;99.90;;;;;;5070207;28;20054;-79
2023/09/30 15:47:39;;;;;;;9.07;1.92;;;18.50;99.90;;;;;;5053732;28;20097;-76
2023/09/30 15:50:05;;;;;;;12.40;3.10;;;18.50;99.90;;;;;;5071681;28;20040;-79
2023/09/30 15:52:31;;;;;;;9.07;1.67;;;18.40;99.90;;;;;;5053628;28;20381;-75
2023/09/30 15:54:57;;;;;;;8.15;1.92;;;18.40;99.90;;;;;;5070025;28;20041;-76
2023/09/30 15:57:23;;;;;;;7.95;1.80;;;18.40;99.90;;;;;;5071530;28;20036;-76
2023/09/30 15:59:49;;;;;;;8.35;2.40;;;18.40;99.90;;;;;;5069881;28;20068;-76
2023/09/30 16:02:16;;;;;;;14.38;2.40;;;18.30;99.90;;;;;;5069839;28;20495;-77
2023/09/30 16:04:42;;;;;;;9.80;2.33;;;18.30;99.90;;;;;;5069873;28;20081;-80
2023/09/30 16:07:08;;;;;;;7.57;2.38;;;18.30;99.90;;;;;;5071131;28;20127;-78
2023/09/30 16:09:34;;;;;;;8.30;2.33;;;18.30;99.90;;;;;;5070000;28;20139;-78
2023/09/30 16:12:03;;;;;;;7.38;2.17;;;18.30;99.90;;;;;;5069613;28;20495;-76
2023/09/30 16:14:30;;;;;;;12.48;2.53;;;18.20;99.90;;;;;;5053322;28;20055;-77
2023/09/30 16:16:56;;;;;;;7.13;1.77;;;18.20;99.90;;;;;;5053087;28;20089;-76
2023/09/30 16:19:22;;;;;;;7.32;2.20;;;18.10;99.90;;;;;;5069733;28;20085;-76
2023/09/30 16:21:48;;;;;;;6.22;2.20;;;18.10;99.90;;;;;;5069056;28;20077;-78
2023/09/30 16:24:13;;;;;;;8.43;2.15;;;18.10;99.90;;;;;;5069485;28;20119;-78
2023/09/30 16:26:40;;;;;;;7.30;2.40;;;18.10;99.90;;;;;;5069874;28;20052;-77
2023/09/30 16:29:06;;;;;;;10.63;3.67;;;18.00;99.90;;;;;;5069577;28;20055;-76
2023/09/30 16:31:32;;;;;;;11.18;2.97;;;18.00;99.90;;;;;;5070663;28;20064;-76
2023/09/30 16:33:58;;;;;;;9.68;2.80;;;18.00;99.90;;;;;;5069387;28;20132;-79
2023/09/30 16:36:24;;;;;;;9.18;2.95;;;18.00;99.90;;;;;;5069769;28;20036;-78
2023/09/30 16:38:49;;;;;;;8.65;2.55;;;17.90;99.90;;;;;;5069419;28;20381;-76
2023/09/30 16:41:15;;;;;;;8.45;2.63;;;17.90;99.90;;;;;;5069417;28;20044;-76
2023/09/30 16:43:41;;;;;;;6.65;1.95;;;17.90;99.90;;;;;;5069538;28;20060;-78
2023/09/30 16:46:07;;;;;;;10.40;2.00;;;17.90;99.90;;;;;;5069241;28;20047;-77
2023/09/30 16:48:32;;;;;;;11.00;3.20;;;17.90;99.90;;;;;;5069199;28;20120;-77
2023/09/30 16:50:58;;;;;;;8.80;2.30;;;17.80;99.90;;;;;;5069297;28;20052;-76
2023/09/30 16:53:24;;;;;;;12.60;3.22;;;17.80;99.90;;;;;;5069218;28;20044;-77
2023/09/30 16:55:51;;;;;;;11.07;2.83;;;17.80;99.90;;;;;;5069020;28;20037;-77
2023/09/30 16:58:17;;;;;;;9.50;3.00;;;17.80;99.90;;;;;;5070292;28;20111;-78
2023/09/30 17:00:43;;;;;;;9.13;2.50;;;17.70;99.90;;;;;;5070507;28;20047;-77
2023/09/30 17:03:10;;;;;;;10.18;2.35;;;17.60;99.90;;;;;;5069367;28;20044;-79
2023/09/30 17:05:37;;;;;;;9.18;2.25;;;17.60;99.90;;;;;;5070200;28;20047;-77
2023/09/30 17:08:04;;;;;;;11.90;2.53;;;17.50;99.90;;;;;;5069148;28;20032;-78
2023/09/30 17:10:30;;;;;;;10.07;2.42;;;17.40;99.90;;;;;;5069325;28;20100;-78
2023/09/30 17:12:55;;;;;;;6.82;1.85;;;17.40;99.90;;;;;;5069095;28;20053;-77
2023/09/30 17:15:21;;;;;;;8.20;2.30;;;17.30;99.90;;;;;;5068966;28;20543;-76
2023/09/30 17:17:47;;;;;;;7.53;2.72;;;17.30;99.90;;;;;;5069192;28;20043;-76
2023/09/30 17:20:13;;;;;;;9.65;2.65;;;17.30;99.90;;;;;;5070378;28;20475;-77
2023/09/30 17:22:39;;;;;;;10.05;3.13;;;17.30;99.90;;;;;;5068910;28;20387;-80